Time;durP1;ratioP1;P1;durP2;ratioP2;P2;SDS_P1;SDS_P2;PMS_P1;PMS_P2;Temp;Humidity;BMP_temperature;BMP_pressure;BME280_temperature;BME280_humidity;BME280_pressure;Samples;Min_cycle;Max_cycle;Signal;HPM_P1;HPM_P2
2021/09/05 00:01:14;;;;;;;;;17.00;13.75;;;;;26.79;51.02;101506.09;5045417;28;45459;-73
2021/09/05 00:03:39;;;;;;;;;18.25;17.75;;;;;26.95;51.37;101520.16;5041176;28;45448;-74
2021/09/05 00:06:05;;;;;;;;;19.75;18.00;;;;;27.01;51.06;101534.56;5043685;28;45404;-74
2021/09/05 00:08:30;;;;;;;;;20.00;17.50;;;;;26.84;50.96;101492.16;5043893;28;46466;-73
2021/09/05 00:10:55;;;;;;;;;17.75;17.25;;;;;27.05;51.16;101523.28;5043476;28;45482;-73
2021/09/05 00:13:21;;;;;;;;;19.25;18.50;;;;;27.03;51.19;101505.81;5043342;28;45395;-73
2021/09/05 00:15:46;;;;;;;;;20.00;18.25;;;;;27.15;50.72;101524.78;5039202;28;45421;-74
2021/09/05 00:18:12;;;;;;;;;18.00;16.75;;;;;27.13;50.54;101511.63;5042081;28;46167;-73
2021/09/05 00:20:37;;;;;;;;;19.25;18.25;;;;;27.18;50.42;101517.19;5043054;28;45196;-74
2021/09/05 00:23:03;;;;;;;;;17.25;16.50;;;;;27.16;50.63;101505.06;5043253;28;45295;-73
2021/09/05 00:25:32;;;;;;;;;18.50;18.50;;;;;27.16;50.46;101511.25;5043224;28;45420;-73
2021/09/05 00:27:58;;;;;;;;;21.50;20.00;;;;;27.22;50.78;101508.78;5040025;28;46177;-74
2021/09/05 00:30:24;;;;;;;;;23.00;19.25;;;;;27.17;50.62;101501.34;5040313;28;45498;-74
2021/09/05 00:32:49;;;;;;;;;19.00;19.00;;;;;27.21;50.54;101507.97;5042754;28;45367;-74
2021/09/05 00:35:14;;;;;;;;;20.00;19.00;;;;;27.23;49.96;101508.59;5042970;28;45463;-74
2021/09/05 00:37:40;;;;;;;;;19.50;18.25;;;;;27.22;50.00;101501.59;5042907;28;45392;-73
2021/09/05 00:40:06;;;;;;;;;19.00;18.25;;;;;27.23;49.85;101500.56;5041173;28;45952;-74
2021/09/05 00:42:32;;;;;;;;;14.50;14.00;;;;;27.25;50.37;101497.69;5040436;28;45511;-73
2021/09/05 00:44:57;;;;;;;;;17.50;16.00;;;;;27.25;50.28;101503.84;5041888;28;45409;-73
2021/09/05 00:47:23;;;;;;;;;18.25;18.25;;;;;27.22;50.16;101496.25;5042381;28;45625;-74
2021/09/05 00:49:48;;;;;;;;;17.50;17.50;;;;;27.29;49.74;101499.78;5043264;28;45373;-73
2021/09/05 00:52:15;;;;;;;;;20.00;17.00;;;;;27.31;49.66;101504.09;5042110;28;45453;-74
2021/09/05 00:54:42;;;;;;;;;19.00;18.25;;;;;27.25;49.79;101493.19;5038943;28;45674;-73
2021/09/05 00:57:15;;;;;;;;;18.75;17.25;;;;;27.31;49.73;101504.09;5041551;28;46227;-73
2021/09/05 00:59:44;;;;;;;;;16.25;15.50;;;;;27.32;49.91;101503.06;5042519;28;45388;-73
2021/09/05 01:02:09;;;;;;;;;18.25;16.00;;;;;27.23;50.08;101487.22;5042279;28;45389;-73
2021/09/05 01:04:35;;;;;;;;;17.00;16.25;;;;;27.34;49.79;101506.34;5041084;28;45601;-74
2021/09/05 01:07:01;;;;;;;;;15.25;15.25;;;;;27.34;49.58;101509.03;5039935;28;45436;-74
2021/09/05 01:09:28;;;;;;;;;17.25;16.75;;;;;27.38;50.02;101510.25;5039164;28;45375;-74
2021/09/05 01:11:54;;;;;;;;;19.00;17.75;;;;;27.35;49.61;101514.16;5041745;28;45361;-73
2021/09/05 01:14:20;;;;;;;;;15.25;15.00;;;;;27.31;49.38;101499.56;5042388;28;45594;-73
2021/09/05 01:16:45;;;;;;;;;18.25;18.25;;;;;27.29;49.65;101505.13;5041784;28;45496;-74
2021/09/05 01:19:16;;;;;;;;;20.75;20.75;;;;;27.37;49.66;101511.31;5041215;28;45658;-73
2021/09/05 01:21:43;;;;;;;;;20.00;14.25;;;;;27.39;49.63;101519.94;5038494;28;45375;-73
2021/09/05 01:24:09;;;;;;;;;16.25;15.25;;;;;27.38;49.20;101507.59;5041372;28;45217;-74
2021/09/05 01:26:39;;;;;;;;;17.00;15.00;;;;;27.35;49.44;101511.50;5041980;28;46521;-73
2021/09/05 01:29:05;;;;;;;;;20.75;20.00;;;;;27.36;49.69;101518.50;5042116;28;45372;-74
2021/09/05 01:31:39;;;;;;;;;19.25;16.25;;;;;27.43;49.69;101526.53;5041688;28;45358;-74
2021/09/05 01:34:05;;;;;;;;;15.75;14.50;;;;;27.41;49.65;101531.25;5039953;28;45572;-73
2021/09/05 01:36:30;;;;;;;;;16.50;16.50;;;;;27.39;49.54;101527.97;5039598;28;45495;-74
2021/09/05 01:38:56;;;;;;;;;19.50;17.50;;;;;27.40;49.69;101535.75;5041093;28;45389;-73
2021/09/05 01:41:21;;;;;;;;;13.25;13.25;;;;;27.40;49.23;101534.97;5042083;28;45511;-73
2021/09/05 01:43:47;;;;;;;;;17.00;14.75;;;;;27.45;49.14;101537.03;5042014;28;45566;-74
2021/09/05 01:46:12;;;;;;;;;14.25;14.00;;;;;27.42;49.15;101532.91;5040664;28;45505;-73
2021/09/05 01:48:37;;;;;;;;;16.75;16.00;;;;;27.39;49.07;101528.78;5038875;28;45373;-73
2021/09/05 01:51:02;;;;;;;;;18.00;16.75;;;;;27.42;49.86;101538.25;5041114;28;45377;-73
2021/09/05 01:53:28;;;;;;;;;14.75;14.75;;;;;27.39;49.72;101538.66;5042027;28;45482;-73
2021/09/05 01:55:53;;;;;;;;;12.50;12.50;;;;;27.46;49.62;101547.50;5041799;28;45241;-73
2021/09/05 01:58:19;;;;;;;;;18.75;16.50;;;;;27.41;49.18;101539.25;5041662;28;45467;-74
2021/09/05 02:00:44;;;;;;;;;16.00;15.75;;;;;27.41;49.39;101544.59;5037141;28;45637;-74
2021/09/05 02:03:10;;;;;;;;;16.50;14.50;;;;;27.39;49.35;101542.16;5041016;28;45440;-74
2021/09/05 02:05:35;;;;;;;;;20.75;19.50;;;;;27.40;48.87;101549.13;5041580;28;45459;-73
2021/09/05 02:08:01;;;;;;;;;17.00;14.50;;;;;27.40;49.42;101545.66;5041805;28;45238;-73
2021/09/05 02:10:26;;;;;;;;;15.25;14.25;;;;;27.39;48.71;101544.81;5041780;28;45438;-74
2021/09/05 02:12:52;;;;;;;;;14.75;14.75;;;;;27.40;49.55;101546.44;5037894;28;47620;-74
2021/09/05 02:15:17;;;;;;;;;16.25;16.25;;;;;27.42;48.83;101546.28;5038437;28;47917;-73
2021/09/05 02:17:42;;;;;;;;;18.25;16.00;;;;;27.39;48.85;101536.81;5041776;28;45438;-74
2021/09/05 02:20:08;;;;;;;;;16.00;16.00;;;;;27.43;48.85;101542.56;5041448;28;45451;-74
2021/09/05 02:22:34;;;;;;;;;17.75;16.50;;;;;27.43;48.86;101545.22;5041025;28;45514;-74
2021/09/05 02:24:59;;;;;;;;;17.50;15.25;;;;;27.43;48.88;101545.22;5038198;28;45459;-73
2021/09/05 02:27:25;;;;;;;;;16.75;16.75;;;;;27.39;48.86;101535.97;5038993;28;45448;-73
2021/09/05 02:29:50;;;;;;;;;16.50;15.75;;;;;27.38;48.76;101537.81;5041022;28;45371;-73
2021/09/05 02:32:15;;;;;;;;;17.50;16.25;;;;;27.41;48.74;101541.94;5041585;28;45325;-73
2021/09/05 02:34:41;;;;;;;;;14.75;14.75;;;;;27.35;48.82;101529.41;5041118;28;45429;-74
2021/09/05 02:37:06;;;;;;;;;15.00;14.50;;;;;27.50;49.19;101551.44;5039491;28;45469;-74
2021/09/05 02:39:31;;;;;;;;;18.75;16.50;;;;;27.38;49.32;101528.97;5038736;28;45628;-74
2021/09/05 02:41:57;;;;;;;;;16.75;14.50;;;;;27.44;48.76;101540.72;5040346;28;45326;-72
2021/09/05 02:44:22;;;;;;;;;14.00;12.75;;;;;27.47;49.20;101549.16;5039252;28;46280;-74
2021/09/05 02:46:47;;;;;;;;;15.50;13.25;;;;;27.34;48.53;101531.22;5041280;28;45361;-71
2021/09/05 02:49:13;;;;;;;;;14.00;14.00;;;;;27.48;49.24;101545.44;5040412;28;45433;-73
2021/09/05 02:51:39;;;;;;;;;14.50;13.75;;;;;27.47;48.84;101551.84;5037646;28;45337;-73
2021/09/05 02:54:05;;;;;;;;;16.00;15.25;;;;;27.40;48.82;101537.63;5039801;28;46280;-74
2021/09/05 02:56:31;;;;;;;;;17.25;15.25;;;;;27.50;49.31;101556.78;5040790;28;45604;-73
2021/09/05 02:58:56;;;;;;;;;17.25;15.50;;;;;27.48;49.23;101552.66;5040759;28;45552;-73
2021/09/05 03:01:21;;;;;;;;;16.00;14.25;;;;;27.47;48.75;101551.84;5040976;28;45480;-74
2021/09/05 03:03:47;;;;;;;;;18.25;17.25;;;;;27.26;49.17;101512.72;5036303;28;46380;-73
2021/09/05 03:06:12;;;;;;;;;14.00;14.00;;;;;27.45;49.26;101547.72;5040005;28;45374;-73
2021/09/05 03:08:37;;;;;;;;;15.25;14.00;;;;;27.48;48.65;101553.47;5040780;28;45451;-74
2021/09/05 03:11:03;;;;;;;;;18.50;17.50;;;;;27.51;49.10;101563.75;5040729;28;45692;-73
2021/09/05 03:13:28;;;;;;;;;19.25;13.00;;;;;27.49;49.14;101554.28;5040153;28;45539;-73
2021/09/05 03:15:54;;;;;;;;;16.50;15.50;;;;;27.46;49.04;101552.00;5037362;28;45689;-73
2021/09/05 03:18:19;;;;;;;;;16.25;15.25;;;;;27.35;48.53;101532.06;5039206;28;45352;-73
2021/09/05 03:20:44;;;;;;;;;17.00;15.50;;;;;27.40;49.01;101543.78;5040447;28;45579;-73
2021/09/05 03:23:10;;;;;;;;;16.00;13.75;;;;;27.38;48.79;101536.97;5040440;28;46095;-73
2021/09/05 03:25:35;;;;;;;;;16.00;16.00;;;;;27.42;48.38;101540.09;5040734;28;45418;-74
2021/09/05 03:28:00;;;;;;;;;15.50;15.50;;;;;27.40;48.34;101537.63;5037772;28;45451;-74
2021/09/05 03:30:26;;;;;;;;;16.00;16.00;;;;;27.42;48.86;101540.09;5037945;28;45435;-74
2021/09/05 03:32:51;;;;;;;;;12.50;12.50;;;;;27.46;48.45;101544.81;5040107;28;49449;-73
2021/09/05 03:35:16;;;;;;;;;14.00;14.00;;;;;27.42;48.86;101538.25;5044008;28;45477;-74
2021/09/05 03:37:41;;;;;;;;;15.25;14.00;;;;;27.41;48.35;101539.25;5044000;28;45378;-73
2021/09/05 03:40:07;;;;;;;;;12.25;12.25;;;;;27.39;48.48;101531.47;5042196;28;45561;-74
2021/09/05 03:42:33;;;;;;;;;13.75;12.25;;;;;27.42;48.62;101527.56;5040732;28;46505;-74
2021/09/05 03:44:58;;;;;;;;;14.75;13.50;;;;;27.48;48.39;101533.97;5042852;28;45246;-74
2021/09/05 03:47:24;;;;;;;;;12.75;11.25;;;;;27.48;48.48;101542.78;5043857;28;45477;-73
2021/09/05 03:49:50;;;;;;;;;16.75;15.75;;;;;27.47;48.30;101538.47;5043905;28;45365;-73
2021/09/05 03:52:15;;;;;;;;;12.75;12.25;;;;;27.50;48.70;101543.41;5042980;28;45616;-74
2021/09/05 03:54:41;;;;;;;;;13.75;12.75;;;;;27.47;48.77;101540.31;5039962;28;45471;-74
2021/09/05 03:57:06;;;;;;;;;13.00;11.50;;;;;27.50;48.53;101546.09;5042528;28;45314;-73
2021/09/05 03:59:31;;;;;;;;;16.75;13.25;;;;;27.50;48.28;101543.41;5042373;28;45305;-73
2021/09/05 04:01:57;;;;;;;;;20.50;15.25;;;;;27.50;48.87;101545.25;5042125;28;47897;-74
2021/09/05 04:04:22;;;;;;;;;16.00;16.00;;;;;27.49;48.41;101552.44;5043817;28;48120;-74
2021/09/05 04:07:00;;;;;;;;;14.50;14.00;;;;;27.47;48.76;101545.66;5039354;28;45443;-74
2021/09/05 04:12:12;;;;;;;;;11.75;11.75;;;;;27.51;48.46;101550.41;5042098;28;45374;-73
2021/09/05 04:14:37;;;;;;;;;14.00;13.75;;;;;27.48;48.59;101547.31;5043089;28;45451;-73
2021/09/05 04:17:03;;;;;;;;;14.50;14.25;;;;;27.44;48.96;101540.72;5043186;28;45328;-74
2021/09/05 04:19:28;;;;;;;;;16.00;15.25;;;;;27.46;48.41;101550.19;5043322;28;45236;-74
2021/09/05 04:21:53;;;;;;;;;9.50;9.50;;;;;27.48;48.81;101547.31;5039525;28;45477;-74
2021/09/05 04:24:19;;;;;;;;;14.00;12.50;;;;;27.41;48.88;101539.25;5040381;28;45294;-74
2021/09/05 04:26:45;;;;;;;;;15.00;13.50;;;;;27.44;48.91;101546.06;5042863;28;45488;-73
2021/09/05 04:29:11;;;;;;;;;16.00;16.00;;;;;27.47;48.23;101553.69;5043325;28;45243;-73
2021/09/05 04:31:36;;;;;;;;;12.00;12.00;;;;;27.48;48.90;101558.00;5042564;28;46555;-73
2021/09/05 04:34:01;;;;;;;;;15.75;15.00;;;;;27.47;49.21;101556.34;5040469;28;45411;-73
2021/09/05 04:36:27;;;;;;;;;11.75;11.75;;;;;27.45;48.46;101545.03;5040882;28;45364;-74
2021/09/05 04:38:52;;;;;;;;;14.75;14.75;;;;;27.46;48.19;101552.00;5042871;28;45470;-74
2021/09/05 04:41:17;;;;;;;;;12.50;12.50;;;;;27.48;48.17;101556.13;5042404;28;46310;-74
2021/09/05 04:43:43;;;;;;;;;14.25;13.00;;;;;27.42;48.90;101551.59;5042982;28;45254;-73
2021/09/05 04:46:08;;;;;;;;;14.25;13.75;;;;;27.40;48.51;101562.47;5041431;28;45940;-73
2021/09/05 04:48:33;;;;;;;;;15.50;15.50;;;;;27.47;48.77;101570.53;5040339;28;45297;-74
2021/09/05 04:50:59;;;;;;;;;13.75;13.50;;;;;27.50;48.08;101577.34;5041829;28;45448;-73
2021/09/05 04:53:24;;;;;;;;;13.50;13.50;;;;;27.50;48.75;101582.69;5042651;28;45362;-74
2021/09/05 04:55:49;;;;;;;;;10.50;10.00;;;;;27.46;48.49;101576.91;5042610;28;45635;-73
2021/09/05 04:58:14;;;;;;;;;12.25;11.75;;;;;27.46;48.22;101579.56;5041815;28;45376;-74
2021/09/05 05:00:40;;;;;;;;;14.25;12.50;;;;;27.45;48.04;101587.78;5038973;28;45482;-73
2021/09/05 05:03:05;;;;;;;;;12.75;11.75;;;;;27.48;48.58;101585.53;5041670;28;45357;-73
2021/09/05 05:05:30;;;;;;;;;13.75;13.25;;;;;27.47;47.88;101583.91;5042754;28;45404;-73
2021/09/05 05:07:56;;;;;;;;;13.50;13.50;;;;;27.51;47.66;101593.16;5042708;28;45539;-74
2021/09/05 05:10:22;;;;;;;;;14.00;14.00;;;;;27.43;48.55;101581.84;5042211;28;45564;-74
2021/09/05 05:12:47;;;;;;;;;14.25;12.75;;;;;27.47;48.38;101591.09;5038170;28;45383;-73
2021/09/05 05:15:13;;;;;;;;;13.00;12.75;;;;;27.54;48.07;101599.13;5041718;28;45389;-73
2021/09/05 05:17:38;;;;;;;;;11.00;10.75;;;;;27.51;48.66;101597.66;5042489;28;45311;-73
2021/09/05 05:20:04;;;;;;;;;13.00;13.00;;;;;27.50;47.99;101596.88;5042035;28;46203;-73
2021/09/05 05:22:30;;;;;;;;;13.75;12.00;;;;;27.48;48.19;101593.56;5042414;28;45303;-74
2021/09/05 05:24:55;;;;;;;;;13.00;12.50;;;;;27.50;48.30;101602.22;5038491;28;45314;-73
2021/09/05 05:27:20;;;;;;;;;14.50;14.50;;;;;27.51;48.21;101611.88;5040585;28;45571;-74
2021/09/05 05:29:45;;;;;;;;;12.25;11.50;;;;;27.44;48.63;101600.31;5041813;28;46232;-73
2021/09/05 05:32:11;;;;;;;;;13.00;12.00;;;;;27.47;48.21;101609.78;5042181;28;45540;-74
2021/09/05 05:34:36;;;;;;;;;13.00;12.25;;;;;27.49;48.47;101615.75;5042106;28;45544;-74
2021/09/05 05:37:03;;;;;;;;;14.00;13.00;;;;;27.39;47.91;101608.94;5039657;28;45511;-74
2021/09/05 05:39:29;;;;;;;;;16.00;14.75;;;;;27.49;48.20;101624.59;5039095;28;46462;-74
2021/09/05 05:41:55;;;;;;;;;14.50;13.75;;;;;27.46;48.24;101618.81;5041369;28;45358;-73
2021/09/05 05:44:20;;;;;;;;;14.75;12.75;;;;;27.50;48.86;101628.09;5040443;28;45472;-73
2021/09/05 05:46:45;;;;;;;;;12.25;12.25;;;;;27.48;48.74;101625.63;5041926;28;45430;-74
2021/09/05 05:49:11;;;;;;;;;15.25;14.00;;;;;27.47;48.68;101625.81;5040756;28;46339;-74
2021/09/05 05:51:36;;;;;;;;;13.25;12.25;;;;;27.49;48.60;101637.97;5038788;28;45314;-74
2021/09/05 05:54:02;;;;;;;;;13.50;13.50;;;;;27.43;48.08;101627.25;5040742;28;45295;-73
2021/09/05 05:56:27;;;;;;;;;13.25;12.50;;;;;27.40;47.94;101631.94;5041130;28;45603;-73
2021/09/05 05:58:52;;;;;;;;;13.50;11.75;;;;;27.42;47.98;101631.78;5041568;28;45281;-73
2021/09/05 06:01:18;;;;;;;;;14.75;13.25;;;;;27.46;48.54;101641.03;5041511;28;45263;-74
2021/09/05 06:03:43;;;;;;;;;13.00;12.75;;;;;27.50;48.35;101653.00;5037784;28;45830;-73
2021/09/05 06:06:08;;;;;;;;;16.00;13.50;;;;;27.50;48.16;101653.00;5040800;28;45306;-73
2021/09/05 06:08:34;;;;;;;;;13.00;12.00;;;;;27.45;48.11;101638.56;5041494;28;45579;-73
2021/09/05 06:10:59;;;;;;;;;13.25;12.25;;;;;27.43;48.17;101643.28;5041460;28;45592;-74
2021/09/05 06:13:25;;;;;;;;;14.50;13.25;;;;;27.44;48.25;101644.91;5041541;28;45724;-74
2021/09/05 06:15:50;;;;;;;;;13.00;13.00;;;;;27.47;48.61;101641.88;5037615;28;45231;-74
2021/09/05 06:18:15;;;;;;;;;14.00;13.50;;;;;27.42;48.18;101645.13;5039159;28;48454;-74
2021/09/05 06:20:41;;;;;;;;;11.50;11.50;;;;;27.45;48.16;101651.94;5041002;28;45451;-74
2021/09/05 06:23:06;;;;;;;;;11.50;11.50;;;;;27.51;48.30;101657.28;5041403;28;45438;-74
2021/09/05 06:25:31;;;;;;;;;12.50;12.50;;;;;27.48;48.48;101654.22;5041327;28;45424;-73
2021/09/05 06:27:57;;;;;;;;;13.00;13.00;;;;;27.52;48.05;101666.97;5038014;28;46513;-74
2021/09/05 06:30:22;;;;;;;;;13.00;11.75;;;;;27.52;48.49;101672.31;5039264;28;45425;-73
2021/09/05 06:32:47;;;;;;;;;11.25;11.25;;;;;27.52;47.84;101674.16;5041129;28;45309;-74
2021/09/05 06:35:13;;;;;;;;;12.50;11.25;;;;;27.49;47.69;101670.03;5040733;28;45452;-73
2021/09/05 06:37:38;;;;;;;;;12.00;11.50;;;;;27.49;48.53;101669.22;5041069;28;46091;-73
2021/09/05 06:40:05;;;;;;;;;14.00;14.00;;;;;27.55;48.46;101681.78;5038990;28;45421;-73
2021/09/05 06:42:30;;;;;;;;;13.25;12.50;;;;;27.51;47.95;101675.16;5038708;28;45351;-74
2021/09/05 06:44:55;;;;;;;;;12.50;12.50;;;;;27.44;47.96;101664.47;5040266;28;45402;-73
2021/09/05 06:47:21;;;;;;;;;12.50;11.00;;;;;27.50;47.59;101673.53;5040782;28;46131;-73
2021/09/05 06:49:46;;;;;;;;;13.50;13.50;;;;;27.50;47.81;101673.53;5040489;28;45385;-73
2021/09/05 06:52:11;;;;;;;;;12.75;12.75;;;;;27.50;47.80;101670.88;5039883;28;45508;-73
2021/09/05 06:54:37;;;;;;;;;12.50;12.25;;;;;27.55;48.38;101675.63;5037944;28;45428;-73
2021/09/05 06:57:04;;;;;;;;;12.25;11.00;;;;;27.51;48.49;101672.50;5039950;28;45557;-73
2021/09/05 06:59:29;;;;;;;;;12.00;11.75;;;;;27.54;48.29;101687.31;5040710;28;45348;-73
2021/09/05 07:01:55;;;;;;;;;12.75;12.75;;;;;27.54;47.81;101681.97;5040997;28;45491;-74
2021/09/05 07:04:20;;;;;;;;;13.50;12.25;;;;;27.52;48.41;101687.53;5040365;28;45618;-73
2021/09/05 07:06:46;;;;;;;;;12.75;12.25;;;;;27.49;48.54;101683.41;5036404;28;46441;-73
2021/09/05 07:09:11;;;;;;;;;14.00;13.50;;;;;27.57;48.58;101693.09;5038684;28;45413;-73
2021/09/05 07:11:37;;;;;;;;;13.00;13.00;;;;;27.51;47.86;101688.53;5040932;28;45293;-73
2021/09/05 07:14:02;;;;;;;;;13.25;11.50;;;;;27.52;48.60;101698.22;5040564;28;45520;-73
2021/09/05 07:16:27;;;;;;;;;11.75;11.50;;;;;27.51;47.81;101693.88;5040627;28;46308;-73
2021/09/05 07:18:53;;;;;;;;;15.00;13.75;;;;;27.57;47.94;101706.47;5037160;28;45357;-73
2021/09/05 07:21:18;;;;;;;;;14.25;10.25;;;;;27.53;48.55;101699.88;5039121;28;45720;-74
2021/09/05 07:23:44;;;;;;;;;16.50;14.75;;;;;27.51;47.88;101697.38;5037622;28;45594;-73
2021/09/05 07:26:09;;;;;;;;;13.25;12.00;;;;;27.53;48.06;101702.56;5037627;28;46581;-73
2021/09/05 07:28:36;;;;;;;;;12.50;12.00;;;;;27.52;47.94;101704.38;5037647;28;45395;-74
2021/09/05 07:31:02;;;;;;;;;16.25;13.50;;;;;27.54;48.08;101706.84;5036536;28;45396;-74
2021/09/05 07:33:28;;;;;;;;;10.00;10.00;;;;;27.55;47.68;101705.00;5035283;28;45398;-73
2021/09/05 07:35:53;;;;;;;;;13.00;10.00;;;;;27.55;48.38;101710.34;5037119;28;45392;-74
2021/09/05 07:38:19;;;;;;;;;10.00;10.00;;;;;27.57;48.25;101722.50;5037782;28;45354;-74
2021/09/05 07:40:44;;;;;;;;;10.50;9.75;;;;;27.54;48.26;101708.69;5037559;28;45493;-73
2021/09/05 07:43:10;;;;;;;;;10.75;10.25;;;;;27.46;48.27;101697.16;5037630;28;45313;-73
2021/09/05 07:45:35;;;;;;;;;12.50;12.50;;;;;27.59;47.54;101720.44;5035544;28;45358;-73
2021/09/05 07:48:01;;;;;;;;;13.75;11.00;;;;;27.56;47.50;101720.84;5036447;28;45362;-73
2021/09/05 07:50:26;;;;;;;;;14.75;13.00;;;;;27.59;47.63;101724.97;5037717;28;45503;-73
2021/09/05 07:52:51;;;;;;;;;12.00;12.00;;;;;27.51;47.80;101710.75;5037347;28;45464;-73
2021/09/05 07:55:17;;;;;;;;;15.25;12.75;;;;;27.63;48.29;101724.41;5037585;28;45959;-73
2021/09/05 07:57:42;;;;;;;;;11.00;10.75;;;;;27.55;48.02;101711.19;5035713;28;45432;-73
2021/09/05 08:00:08;;;;;;;;;10.25;10.25;;;;;27.65;47.54;101732.22;5039437;28;45447;-73
2021/09/05 08:02:33;;;;;;;;;12.25;11.25;;;;;27.63;48.20;101729.75;5039906;28;45486;-73
2021/09/05 08:04:59;;;;;;;;;13.00;11.00;;;;;27.58;47.46;101712.66;5039823;28;45328;-72
2021/09/05 08:07:24;;;;;;;;;12.50;12.50;;;;;27.63;47.99;101724.41;5040027;28;45460;-73
2021/09/05 08:09:49;;;;;;;;;11.25;11.25;;;;;27.65;47.58;101726.88;5035719;28;45523;-73
2021/09/05 08:12:15;;;;;;;;;15.25;13.75;;;;;27.69;47.46;101735.31;5039119;28;45330;-73
2021/09/05 08:14:40;;;;;;;;;10.75;10.75;;;;;27.67;47.40;101730.16;5039847;28;47339;-73
2021/09/05 08:17:05;;;;;;;;;13.00;12.00;;;;;27.68;48.11;101731.81;5039599;28;45376;-72
2021/09/05 08:19:31;;;;;;;;;10.50;10.50;;;;;27.71;47.53;101733.28;5041046;28;45361;-73
2021/09/05 08:21:56;;;;;;;;;9.75;9.75;;;;;27.65;48.20;101721.50;5042679;28;45392;-73
2021/09/05 08:24:21;;;;;;;;;11.50;11.50;;;;;27.65;48.12;101721.50;5043877;28;45469;-74
2021/09/05 08:26:47;;;;;;;;;11.50;11.50;;;;;27.67;47.54;101724.81;5045653;28;45504;-73
2021/09/05 08:29:12;;;;;;;;;11.25;10.50;;;;;27.65;48.07;101718.84;5042209;28;45289;-73
2021/09/05 08:31:37;;;;;;;;;11.75;10.50;;;;;27.70;47.89;101724.44;5042639;28;45441;-73
2021/09/05 08:34:03;;;;;;;;;31.50;28.00;;;;;27.70;47.23;101732.44;5040588;28;45457;-73
2021/09/05 08:36:30;;;;;;;;;24.00;22.75;;;;;27.63;46.28;101724.41;5053015;28;45555;-73
2021/09/05 08:38:57;;;;;;;;;27.00;25.25;;;;;27.62;46.19;101725.41;5058602;28;45338;-73
2021/09/05 08:41:24;;;;;;;;;32.00;25.00;;;;;27.66;46.42;101733.88;5056039;28;45475;-73
2021/09/05 08:43:50;;;;;;;;;28.75;25.75;;;;;27.68;46.50;101729.16;5055645;28;48210;-73
2021/09/05 08:46:16;;;;;;;;;30.00;24.75;;;;;27.76;47.22;101735.34;5053587;28;45534;-73
2021/09/05 08:48:42;;;;;;;;;30.50;24.00;;;;;27.80;46.88;101733.94;5055673;28;45403;-72
2021/09/05 08:51:08;;;;;;;;;22.25;20.25;;;;;27.84;46.61;101727.19;5058353;28;45321;-73
2021/09/05 08:53:34;;;;;;;;;28.50;27.75;;;;;27.87;47.22;101731.31;5059008;28;45533;-73
2021/09/05 08:56:00;;;;;;;;;28.25;24.00;;;;;27.95;46.58;101725.78;5049294;28;45563;-73
2021/09/05 08:58:28;;;;;;;;;29.00;24.25;;;;;27.94;47.09;101724.97;5055422;28;45366;-73
2021/09/05 09:00:53;;;;;;;;;34.75;25.00;;;;;28.07;46.55;101744.78;5061438;28;45499;-73
2021/09/05 09:03:21;;;;;;;;;25.25;22.50;;;;;28.15;47.36;101749.97;5056686;28;45546;-73
2021/09/05 09:05:51;;;;;;;;;26.50;23.00;;;;;28.18;47.79;101741.50;5058369;28;45271;-72
2021/09/05 09:08:17;;;;;;;;;29.25;25.00;;;;;28.24;46.91;101739.06;5059066;27;45622;-72
2021/09/05 09:10:47;;;;;;;;;27.00;24.25;;;;;28.35;47.25;101751.84;5054605;28;45502;-72
2021/09/05 09:13:37;;;;;;;;;27.00;20.75;;;;;28.36;47.28;101744.66;5056343;28;46482;-72
2021/09/05 09:16:06;;;;;;;;;32.00;25.75;;;;;28.45;47.73;101756.84;5060569;28;45548;-71
2021/09/05 09:18:34;;;;;;;;;26.75;22.75;;;;;28.44;46.97;101747.16;5053395;28;45301;-72
2021/09/05 09:21:01;;;;;;;;;23.50;21.00;;;;;28.55;47.11;101755.66;5061051;28;45560;-72
2021/09/05 09:23:28;;;;;;;;;23.25;22.25;;;;;28.58;47.40;101757.91;5049481;28;47389;-73
2021/09/05 09:25:59;;;;;;;;;24.75;22.25;;;;;28.60;46.07;101755.84;5054980;28;45389;-72
2021/09/05 09:28:29;;;;;;;;;28.75;22.00;;;;;28.61;46.43;101761.00;5054450;28;45563;-72
2021/09/05 09:31:05;;;;;;;;;26.50;21.50;;;;;28.61;46.34;101744.09;5053920;28;45367;-73
2021/09/05 09:33:31;;;;;;;;;23.00;20.50;;;;;28.51;46.00;101736.47;5060228;28;46367;-71
2021/09/05 09:36:01;;;;;;;;;23.50;20.25;;;;;28.65;45.77;101755.25;5055320;28;45474;-70
2021/09/05 09:38:27;;;;;;;;;22.00;22.00;;;;;28.61;46.27;101741.44;5053610;28;45496;-71
2021/09/05 09:41:04;;;;;;;;;18.00;18.00;;;;;28.67;45.97;101751.34;5055288;28;46055;-72
2021/09/05 09:43:29;;;;;;;;;20.50;18.50;;;;;28.58;45.58;101739.16;5053215;28;45506;-73
2021/09/05 09:46:11;;;;;;;;;21.50;19.25;;;;;28.61;46.41;101741.44;5056787;28;45515;-74
2021/09/05 09:48:42;;;;;;;;;22.50;20.75;;;;;28.38;46.77;101708.63;5055920;28;45599;-73
2021/09/05 09:51:08;;;;;;;;;21.75;21.25;;;;;28.60;46.87;101748.63;5041305;28;45607;-71
2021/09/05 09:53:35;;;;;;;;;23.50;21.50;;;;;28.56;46.45;101734.03;5044114;28;45444;-71
2021/09/05 09:56:01;;;;;;;;;26.00;21.75;;;;;28.62;46.62;101745.78;5044281;28;45459;-71
2021/09/05 09:58:26;;;;;;;;;22.00;18.50;;;;;28.57;46.76;101745.56;5040222;28;45358;-71
2021/09/05 10:00:53;;;;;;;;;19.25;17.50;;;;;28.49;46.74;101731.34;5054526;28;45483;-71
2021/09/05 10:03:18;;;;;;;;;21.00;19.00;;;;;28.52;46.19;101741.63;5038723;28;45689;-71
2021/09/05 10:05:45;;;;;;;;;21.75;18.00;;;;;28.56;46.31;101743.91;5044339;28;45439;-71
2021/09/05 10:08:11;;;;;;;;;23.75;21.50;;;;;28.39;46.30;101723.66;5059963;28;45455;-71
2021/09/05 10:10:37;;;;;;;;;20.50;16.00;;;;;28.51;46.31;101740.00;5044205;28;45520;-71
2021/09/05 10:13:03;;;;;;;;;19.25;15.50;;;;;28.54;46.93;101744.13;5041139;28;46934;-71
2021/09/05 10:15:29;;;;;;;;;21.50;18.25;;;;;28.47;46.68;101737.94;5039496;28;45600;-71
2021/09/05 10:17:54;;;;;;;;;22.00;18.00;;;;;28.50;46.71;101746.34;5043277;28;45276;-71
2021/09/05 10:20:22;;;;;;;;;18.25;17.25;;;;;28.49;46.94;101744.72;5044006;28;45677;-71
2021/09/05 10:22:49;;;;;;;;;17.00;16.75;;;;;28.43;46.22;101740.16;5043819;28;45678;-71
2021/09/05 10:25:16;;;;;;;;;18.75;15.50;;;;;28.37;46.26;101733.75;5040934;28;45490;-71
2021/09/05 10:27:47;;;;;;;;;18.50;16.75;;;;;28.46;46.80;101746.97;5037234;28;45327;-71
2021/09/05 10:30:15;;;;;;;;;15.75;15.75;;;;;28.39;46.88;101737.03;5040210;28;45355;-71
2021/09/05 10:32:52;;;;;;;;;18.75;17.25;;;;;28.38;46.96;101737.25;5040879;28;46339;-71
2021/09/05 10:35:37;;;;;;;;;17.25;14.25;;;;;28.43;46.46;101742.00;5041327;28;45479;-71
2021/09/05 10:38:09;;;;;;;;;17.75;15.00;;;;;28.41;46.73;101739.53;5040898;28;45338;-71
2021/09/05 10:40:44;;;;;;;;;17.50;16.75;;;;;28.40;46.52;101740.53;5041288;28;45357;-71
2021/09/05 10:43:11;;;;;;;;;19.50;16.75;;;;;28.38;46.43;101738.06;5037474;28;46239;-71
2021/09/05 10:45:42;;;;;;;;;17.50;15.75;;;;;28.37;47.14;101739.09;5038123;28;45411;-71
2021/09/05 10:48:30;;;;;;;;;17.00;15.75;;;;;28.36;46.51;101740.13;5040158;28;45511;-71
2021/09/05 10:51:12;;;;;;;;;19.50;19.00;;;;;28.36;46.97;101736.63;5037754;28;45483;-72
2021/09/05 10:53:49;;;;;;;;;15.00;14.75;;;;;28.34;47.03;101736.00;5037859;28;46018;-73
2021/09/05 10:56:17;;;;;;;;;15.75;15.75;;;;;28.29;46.61;101728.56;5037585;28;45406;-73
2021/09/05 10:58:56;;;;;;;;;17.00;13.50;;;;;28.35;47.05;101729.63;5043047;28;45447;-70
2021/09/05 11:01:26;;;;;;;;;15.75;15.00;;;;;28.37;47.65;101727.56;5048892;28;45439;-70
2021/09/05 11:04:09;;;;;;;;;19.25;17.00;;;;;28.38;47.73;101731.91;5050082;28;45797;-71
2021/09/05 11:06:43;;;;;;;;;19.25;15.50;;;;;28.37;48.09;101728.38;5033882;28;45413;-71
2021/09/05 11:09:17;;;;;;;;;15.00;15.00;;;;;28.38;47.70;101729.22;5035462;28;45401;-71